Time;durP1;ratioP1;P1;durP2;ratioP2;P2;SDS_P1;SDS_P2;PMS_P1;PMS_P2;Temp;Humidity;BMP_temperature;BMP_pressure;BME280_temperature;BME280_humidity;BME280_pressure;Samples;Min_cycle;Max_cycle;Signal;HPM_P1;HPM_P2
2024/04/03 00:00:57;;;;;;;0.60;0.60;;;;;;;;;;4982688;28;20209;-76
2024/04/03 00:03:24;;;;;;;0.70;0.70;;;;;;;;;;4979568;28;20506;-78
2024/04/03 00:05:49;;;;;;;0.70;0.70;;;;;;;;;;4980333;28;20209;-77
2024/04/03 00:08:16;;;;;;;0.70;0.70;;;;;;;;;;4980822;28;20623;-76
2024/04/03 00:10:41;;;;;;;0.85;0.85;;;;;;;;;;4979899;28;20603;-77
2024/04/03 00:13:07;;;;;;;0.70;0.70;;;;;;;;;;4978766;28;20213;-77
2024/04/03 00:15:34;;;;;;;0.70;0.70;;;;;;;;;;4982462;28;20220;-77
2024/04/03 00:18:00;;;;;;;0.70;0.70;;;;;;;;;;4981597;28;20225;-77
2024/04/03 00:20:26;;;;;;;0.70;0.70;;;;;;;;;;4978460;28;20650;-77
2024/04/03 00:22:52;;;;;;;0.80;0.80;;;;;;;;;;4988984;28;20209;-77
2024/04/03 00:25:18;;;;;;;0.70;0.70;;;;;;;;;;4984064;28;20219;-76
2024/04/03 00:27:45;;;;;;;0.65;0.65;;;;;;;;;;4983473;28;20209;-76
2024/04/03 00:30:10;;;;;;;0.70;0.70;;;;;;;;;;4982870;28;20236;-77
2024/04/03 00:32:38;;;;;;;0.77;0.77;;;;;;;;;;4981763;28;20358;-76
2024/04/03 00:35:04;;;;;;;0.75;0.75;;;;;;;;;;4979835;28;20247;-77
2024/04/03 00:37:30;;;;;;;0.80;0.80;;;;;;;;;;4982101;28;20662;-77
2024/04/03 00:39:56;;;;;;;0.70;0.70;;;;;;;;;;4983303;28;20217;-76
2024/04/03 00:42:22;;;;;;;0.70;0.70;;;;;;;;;;4991238;28;20512;-78
2024/04/03 00:44:48;;;;;;;0.70;0.70;;;;;;;;;;4980326;28;20215;-76
2024/04/03 00:47:14;;;;;;;0.70;0.70;;;;;;;;;;4981027;28;20512;-77
2024/04/03 00:49:43;;;;;;;0.70;0.70;;;;;;;;;;4976513;28;20874;-77
2024/04/03 00:52:09;;;;;;;0.90;0.90;;;;;;;;;;4979920;28;20209;-77
2024/04/03 00:54:35;;;;;;;0.73;0.73;;;;;;;;;;4981223;28;20217;-77
2024/04/03 00:57:01;;;;;;;0.70;0.70;;;;;;;;;;4979696;28;20947;-77
2024/04/03 00:59:28;;;;;;;0.70;0.70;;;;;;;;;;4980796;28;20260;-76
2024/04/03 01:01:54;;;;;;;0.70;0.70;;;;;;;;;;4979967;28;20205;-77
2024/04/03 01:04:20;;;;;;;0.70;0.70;;;;;;;;;;4979683;28;20216;-78
2024/04/03 01:06:47;;;;;;;0.70;0.70;;;;;;;;;;4978813;28;20213;-77
2024/04/03 01:09:13;;;;;;;0.70;0.70;;;;;;;;;;4979248;28;20213;-77
2024/04/03 01:11:39;;;;;;;0.60;0.60;;;;;;;;;;4978940;28;20213;-77
2024/04/03 01:14:05;;;;;;;0.70;0.70;;;;;;;;;;4977587;28;20208;-75
2024/04/03 01:16:30;;;;;;;0.70;0.70;;;;;;;;;;4978990;28;20209;-76
2024/04/03 01:18:57;;;;;;;0.70;0.70;;;;;;;;;;4978877;28;20733;-76
2024/04/03 01:21:22;;;;;;;0.70;0.70;;;;;;;;;;4977493;28;20523;-76
2024/04/03 01:23:52;;;;;;;0.70;0.70;;;;;;;;;;4981503;28;20209;-77
2024/04/03 01:26:17;;;;;;;0.75;0.75;;;;;;;;;;4979532;28;20223;-77
2024/04/03 01:28:44;;;;;;;0.77;0.77;;;;;;;;;;4978518;28;20659;-76
2024/04/03 01:31:09;;;;;;;0.70;0.70;;;;;;;;;;4978892;28;20240;-76
2024/04/03 01:33:36;;;;;;;0.70;0.70;;;;;;;;;;4978292;28;20771;-77
2024/04/03 01:36:01;;;;;;;0.70;0.70;;;;;;;;;;4975305;28;20217;-76
2024/04/03 01:38:27;;;;;;;0.70;0.70;;;;;;;;;;4977232;28;20311;-77
2024/04/03 01:40:54;;;;;;;0.80;0.80;;;;;;;;;;4976584;28;20213;-76
2024/04/03 01:43:21;;;;;;;0.80;0.80;;;;;;;;;;4975528;28;20575;-77
2024/04/03 01:45:54;;;;;;;0.70;0.70;;;;;;;;;;4978839;28;20205;-76
2024/04/03 01:48:20;;;;;;;0.70;0.70;;;;;;;;;;4990436;28;20201;-77
2024/04/03 01:50:46;;;;;;;0.70;0.70;;;;;;;;;;4974792;28;20213;-76
2024/04/03 01:53:12;;;;;;;0.70;0.70;;;;;;;;;;4978951;28;20214;-77
2024/04/03 01:55:37;;;;;;;0.70;0.70;;;;;;;;;;4976003;28;20719;-77
2024/04/03 01:58:06;;;;;;;0.60;0.60;;;;;;;;;;4976338;28;20610;-77
2024/04/03 02:00:31;;;;;;;1.15;1.15;;;;;;;;;;4979135;28;20605;-77
2024/04/03 02:02:58;;;;;;;0.70;0.70;;;;;;;;;;4977476;28;20205;-77
2024/04/03 02:05:23;;;;;;;0.70;0.70;;;;;;;;;;4975662;28;20205;-77
2024/04/03 02:07:51;;;;;;;0.70;0.70;;;;;;;;;;4978305;28;20646;-76
2024/04/03 02:10:16;;;;;;;0.70;0.70;;;;;;;;;;4980350;28;20536;-76
2024/04/03 02:12:42;;;;;;;0.80;0.80;;;;;;;;;;4978529;28;20565;-76
2024/04/03 02:15:09;;;;;;;0.70;0.70;;;;;;;;;;4983807;28;20631;-76
2024/04/03 02:17:36;;;;;;;0.70;0.70;;;;;;;;;;4982837;28;20236;-76
2024/04/03 02:20:01;;;;;;;0.70;0.70;;;;;;;;;;4980117;28;20202;-76
2024/04/03 02:22:27;;;;;;;0.80;0.80;;;;;;;;;;4981148;28;20555;-76
2024/04/03 02:24:53;;;;;;;0.70;0.70;;;;;;;;;;4985088;28;20220;-77
2024/04/03 02:27:19;;;;;;;0.60;0.60;;;;;;;;;;4982062;28;20548;-76
2024/04/03 02:29:45;;;;;;;0.70;0.70;;;;;;;;;;4983140;28;20781;-77
2024/04/03 02:32:13;;;;;;;0.70;0.70;;;;;;;;;;4983058;28;20227;-77
2024/04/03 02:34:38;;;;;;;0.70;0.70;;;;;;;;;;4981146;28;20236;-76
2024/04/03 02:37:04;;;;;;;0.70;0.70;;;;;;;;;;4980397;28;20573;-76
2024/04/03 02:39:30;;;;;;;0.68;0.68;;;;;;;;;;4981863;28;20232;-77
2024/04/03 02:41:56;;;;;;;0.63;0.63;;;;;;;;;;4981218;28;20209;-77
2024/04/03 02:44:22;;;;;;;0.73;0.73;;;;;;;;;;4981958;28;20215;-77
2024/04/03 02:46:48;;;;;;;0.70;0.70;;;;;;;;;;4981491;28;20936;-76
2024/04/03 02:49:16;;;;;;;0.60;0.60;;;;;;;;;;4994746;28;20489;-76
2024/04/03 02:51:43;;;;;;;0.77;0.77;;;;;;;;;;4980589;28;20276;-76
2024/04/03 02:54:08;;;;;;;0.70;0.70;;;;;;;;;;4987445;28;20643;-76
2024/04/03 02:56:35;;;;;;;0.70;0.70;;;;;;;;;;4987418;28;20206;-76
2024/04/03 02:59:00;;;;;;;0.70;0.70;;;;;;;;;;4983225;28;20289;-77
2024/04/03 03:01:26;;;;;;;0.70;0.70;;;;;;;;;;4984801;28;20213;-77
2024/04/03 03:03:52;;;;;;;0.70;0.70;;;;;;;;;;4980433;28;20216;-77
2024/04/03 03:06:19;;;;;;;0.70;0.70;;;;;;;;;;4982498;28;20212;-77
2024/04/03 03:08:45;;;;;;;0.70;0.70;;;;;;;;;;4982993;28;20247;-76
2024/04/03 03:11:11;;;;;;;0.70;0.70;;;;;;;;;;4984121;28;20209;-77
2024/04/03 03:13:36;;;;;;;0.63;0.63;;;;;;;;;;4981237;28;20213;-76
2024/04/03 03:16:03;;;;;;;0.70;0.70;;;;;;;;;;4980561;28;20640;-76
2024/04/03 03:18:29;;;;;;;0.70;0.70;;;;;;;;;;4980454;28;20231;-76
2024/04/03 03:20:55;;;;;;;0.77;0.77;;;;;;;;;;4977283;28;20205;-77
2024/04/03 03:23:23;;;;;;;0.70;0.70;;;;;;;;;;4979670;28;20561;-76
2024/04/03 03:25:51;;;;;;;0.70;0.70;;;;;;;;;;4979465;28;20217;-76
2024/04/03 03:28:17;;;;;;;0.70;0.70;;;;;;;;;;4978657;28;20212;-76
2024/04/03 03:30:46;;;;;;;0.80;0.80;;;;;;;;;;4979018;28;20575;-76
2024/04/03 03:33:11;;;;;;;0.70;0.70;;;;;;;;;;4978752;28;20218;-75
2024/04/03 03:35:38;;;;;;;0.70;0.70;;;;;;;;;;4975744;28;20637;-76
2024/04/03 03:38:04;;;;;;;0.80;0.80;;;;;;;;;;4978542;28;20705;-75
2024/04/03 03:40:33;;;;;;;0.70;0.70;;;;;;;;;;4979163;28;20205;-76
2024/04/03 03:42:59;;;;;;;0.70;0.70;;;;;;;;;;4978211;28;21077;-76
2024/04/03 03:45:26;;;;;;;0.70;0.70;;;;;;;;;;4980582;28;20209;-76
2024/04/03 03:47:51;;;;;;;0.70;0.70;;;;;;;;;;4979856;28;20209;-76
2024/04/03 03:53:02;;;;;;;0.77;0.77;;;;;;;;;;4978394;28;20297;-76
2024/04/03 03:55:28;;;;;;;0.70;0.70;;;;;;;;;;4980847;28;20516;-76
2024/04/03 03:57:56;;;;;;;0.77;0.77;;;;;;;;;;4977365;28;20241;-76
2024/04/03 04:00:22;;;;;;;0.70;0.70;;;;;;;;;;4977774;28;20305;-77
2024/04/03 04:02:49;;;;;;;0.63;0.63;;;;;;;;;;4980453;28;20676;-76
2024/04/03 04:05:17;;;;;;;0.80;0.80;;;;;;;;;;4976626;28;20663;-75
2024/04/03 04:07:43;;;;;;;0.73;0.73;;;;;;;;;;4978519;28;20217;-76
2024/04/03 04:10:09;;;;;;;0.70;0.70;;;;;;;;;;4979239;28;20783;-76
2024/04/03 04:12:35;;;;;;;0.70;0.70;;;;;;;;;;4978596;28;20516;-76
2024/04/03 04:15:03;;;;;;;0.70;0.70;;;;;;;;;;4979076;28;20201;-76
2024/04/03 04:17:28;;;;;;;0.70;0.70;;;;;;;;;;4982390;28;20369;-76
2024/04/03 04:19:55;;;;;;;0.70;0.70;;;;;;;;;;4977834;28;20600;-76
2024/04/03 04:22:20;;;;;;;0.68;0.68;;;;;;;;;;4979957;28;20235;-76
2024/04/03 04:24:48;;;;;;;0.75;0.75;;;;;;;;;;4980538;28;20213;-77
2024/04/03 04:27:14;;;;;;;0.70;0.70;;;;;;;;;;4979059;28;20665;-76
2024/04/03 04:29:40;;;;;;;0.70;0.70;;;;;;;;;;4977124;28;20279;-76
2024/04/03 04:32:09;;;;;;;0.70;0.70;;;;;;;;;;4977417;28;20217;-76
2024/04/03 04:34:34;;;;;;;0.73;0.73;;;;;;;;;;4981185;28;20949;-76
2024/04/03 04:37:01;;;;;;;0.80;0.80;;;;;;;;;;4980899;28;20208;-76
2024/04/03 04:39:26;;;;;;;0.70;0.70;;;;;;;;;;4980554;28;20221;-76
2024/04/03 04:41:53;;;;;;;0.80;0.80;;;;;;;;;;4979828;28;20232;-77
2024/04/03 04:44:19;;;;;;;0.70;0.70;;;;;;;;;;4981040;28;20221;-77
2024/04/03 04:46:48;;;;;;;0.77;0.77;;;;;;;;;;4979344;28;20220;-76
2024/04/03 04:49:15;;;;;;;0.60;0.60;;;;;;;;;;4980591;28;20347;-76
2024/04/03 04:51:41;;;;;;;0.70;0.70;;;;;;;;;;4976839;28;20628;-76
2024/04/03 04:54:07;;;;;;;0.70;0.70;;;;;;;;;;4983907;28;20207;-76
2024/04/03 04:56:33;;;;;;;0.70;0.70;;;;;;;;;;4978696;28;20536;-76
2024/04/03 04:58:58;;;;;;;0.73;0.73;;;;;;;;;;4978164;28;20842;-78
2024/04/03 05:01:25;;;;;;;0.80;0.80;;;;;;;;;;4981815;28;20213;-78
2024/04/03 05:03:51;;;;;;;0.70;0.70;;;;;;;;;;4979101;28;20212;-76
2024/04/03 05:06:18;;;;;;;0.70;0.70;;;;;;;;;;4977772;28;20205;-77
2024/04/03 05:08:45;;;;;;;0.80;0.80;;;;;;;;;;4981053;28;20534;-76
2024/04/03 05:11:10;;;;;;;0.70;0.70;;;;;;;;;;4978608;28;20383;-76
2024/04/03 05:13:37;;;;;;;0.70;0.70;;;;;;;;;;4978859;28;20603;-76
2024/04/03 05:16:06;;;;;;;0.80;0.80;;;;;;;;;;4978719;28;20210;-76
2024/04/03 05:18:32;;;;;;;0.70;0.70;;;;;;;;;;4978824;28;20232;-77
2024/04/03 05:20:57;;;;;;;0.80;0.80;;;;;;;;;;4975758;28;20633;-76
2024/04/03 05:23:25;;;;;;;0.60;0.60;;;;;;;;;;4978031;28;20799;-76
2024/04/03 05:25:55;;;;;;;0.80;0.80;;;;;;;;;;4977342;28;20525;-76
2024/04/03 05:28:21;;;;;;;0.70;0.70;;;;;;;;;;4977406;28;21209;-76
2024/04/03 05:30:46;;;;;;;0.70;0.70;;;;;;;;;;4978681;28;20209;-76
2024/04/03 05:33:13;;;;;;;0.70;0.70;;;;;;;;;;4978263;28;20978;-77
2024/04/03 05:35:38;;;;;;;0.70;0.70;;;;;;;;;;4977612;28;20378;-77
2024/04/03 05:38:05;;;;;;;0.70;0.70;;;;;;;;;;4977743;28;20859;-77
2024/04/03 05:40:32;;;;;;;0.70;0.70;;;;;;;;;;4978680;28;20224;-77
2024/04/03 05:42:58;;;;;;;0.60;0.60;;;;;;;;;;4978834;28;20637;-77
2024/04/03 05:45:23;;;;;;;0.70;0.70;;;;;;;;;;4986999;28;20217;-78
2024/04/03 05:47:50;;;;;;;0.77;0.77;;;;;;;;;;4982178;28;21100;-77
2024/04/03 05:50:15;;;;;;;0.70;0.70;;;;;;;;;;4977130;28;20924;-77
2024/04/03 05:52:42;;;;;;;0.60;0.60;;;;;;;;;;4979224;28;20205;-77
2024/04/03 05:55:07;;;;;;;0.77;0.77;;;;;;;;;;4980079;28;20634;-77
2024/04/03 05:57:35;;;;;;;0.80;0.80;;;;;;;;;;4977575;28;20554;-77
2024/04/03 06:00:00;;;;;;;0.70;0.70;;;;;;;;;;4978083;28;20214;-76
2024/04/03 06:02:27;;;;;;;0.70;0.70;;;;;;;;;;4977758;28;20501;-77
2024/04/03 06:04:52;;;;;;;0.70;0.70;;;;;;;;;;4977257;28;20355;-76
2024/04/03 06:07:19;;;;;;;0.70;0.70;;;;;;;;;;4977680;28;20262;-77
2024/04/03 06:09:44;;;;;;;0.70;0.70;;;;;;;;;;4980136;28;20224;-76
2024/04/03 06:12:11;;;;;;;0.70;0.70;;;;;;;;;;4976998;28;20213;-76
2024/04/03 06:14:38;;;;;;;0.70;0.70;;;;;;;;;;4979343;28;20214;-77
2024/04/03 06:17:04;;;;;;;0.68;0.68;;;;;;;;;;4978964;28;20706;-76
2024/04/03 06:19:29;;;;;;;0.70;0.70;;;;;;;;;;4978044;28;20254;-76
2024/04/03 06:21:56;;;;;;;0.70;0.70;;;;;;;;;;4976336;28;20205;-77
2024/04/03 06:24:21;;;;;;;0.70;0.70;;;;;;;;;;4978635;28;20213;-77
2024/04/03 06:26:48;;;;;;;0.70;0.70;;;;;;;;;;4977781;28;20220;-77
2024/04/03 06:29:13;;;;;;;0.70;0.70;;;;;;;;;;4979426;28;20353;-78
2024/04/03 06:31:41;;;;;;;0.70;0.70;;;;;;;;;;4977150;28;20215;-76
2024/04/03 06:34:06;;;;;;;0.70;0.70;;;;;;;;;;4978799;28;20213;-77
2024/04/03 06:36:33;;;;;;;0.80;0.80;;;;;;;;;;4977477;28;20527;-76
2024/04/03 06:38:58;;;;;;;0.70;0.70;;;;;;;;;;4979179;28;20234;-76
2024/04/03 06:41:24;;;;;;;0.77;0.77;;;;;;;;;;4978684;28;20567;-77
2024/04/03 06:43:50;;;;;;;0.65;0.65;;;;;;;;;;4977822;28;20871;-76
2024/04/03 06:46:17;;;;;;;0.70;0.70;;;;;;;;;;4979588;28;20328;-76
2024/04/03 06:48:45;;;;;;;0.70;0.70;;;;;;;;;;4985773;28;20197;-76
2024/04/03 06:51:11;;;;;;;0.70;0.70;;;;;;;;;;4979166;28;20229;-77
2024/04/03 06:53:38;;;;;;;0.70;0.70;;;;;;;;;;4979486;28;20210;-77
2024/04/03 06:56:05;;;;;;;0.70;0.70;;;;;;;;;;4979613;28;20530;-77
2024/04/03 06:58:37;;;;;;;0.70;0.70;;;;;;;;;;4981043;28;20240;-77
2024/04/03 07:01:02;;;;;;;0.70;0.70;;;;;;;;;;4985197;28;20950;-76
2024/04/03 07:03:29;;;;;;;0.70;0.70;;;;;;;;;;4983130;28;20205;-76
2024/04/03 07:05:56;;;;;;;0.68;0.68;;;;;;;;;;4980146;28;20248;-76
2024/04/03 07:08:22;;;;;;;0.73;0.73;;;;;;;;;;4981492;28;20213;-76
2024/04/03 07:10:48;;;;;;;0.70;0.70;;;;;;;;;;4967767;28;20220;-75
2024/04/03 07:13:14;;;;;;;0.70;0.70;;;;;;;;;;4980841;28;20519;-76
2024/04/03 07:15:40;;;;;;;0.70;0.70;;;;;;;;;;4980102;28;20210;-76
2024/04/03 07:18:06;;;;;;;0.70;0.70;;;;;;;;;;4984133;28;20235;-76
2024/04/03 07:20:32;;;;;;;0.70;0.70;;;;;;;;;;4977277;28;20231;-76
2024/04/03 07:23:00;;;;;;;0.70;0.70;;;;;;;;;;4981955;28;20205;-75
2024/04/03 07:25:26;;;;;;;0.70;0.70;;;;;;;;;;4982451;28;20604;-76
2024/04/03 07:27:53;;;;;;;0.80;0.80;;;;;;;;;;4980140;28;20624;-76
2024/04/03 07:30:18;;;;;;;0.70;0.70;;;;;;;;;;4981881;28;20221;-76
2024/04/03 07:32:45;;;;;;;0.70;0.70;;;;;;;;;;4980560;28;20532;-75
2024/04/03 07:35:10;;;;;;;0.70;0.70;;;;;;;;;;4976922;28;20213;-76
2024/04/03 07:37:39;;;;;;;0.70;0.70;;;;;;;;;;4982066;28;20217;-77
2024/04/03 07:40:08;;;;;;;0.80;0.80;;;;;;;;;;4988339;28;20795;-78
2024/04/03 07:42:36;;;;;;;0.70;0.70;;;;;;;;;;4990147;28;20209;-77
2024/04/03 07:45:02;;;;;;;0.63;0.63;;;;;;;;;;4982134;28;20209;-76
2024/04/03 07:47:31;;;;;;;0.70;0.70;;;;;;;;;;4980328;28;20213;-77
2024/04/03 07:49:56;;;;;;;0.70;0.70;;;;;;;;;;4992153;28;20296;-77
2024/04/03 07:52:22;;;;;;;6.93;2.55;;;;;;;;;;4981897;28;20342;-77
2024/04/03 07:54:48;;;;;;;0.68;0.68;;;;;;;;;;4983003;28;20310;-77
2024/04/03 07:57:16;;;;;;;0.70;0.70;;;;;;;;;;4981027;28;20209;-78
2024/04/03 07:59:42;;;;;;;0.70;0.70;;;;;;;;;;4981149;28;20272;-78
2024/04/03 08:02:08;;;;;;;0.70;0.70;;;;;;;;;;4981810;28;20647;-76
2024/04/03 08:04:35;;;;;;;0.70;0.70;;;;;;;;;;4978563;28;20641;-77
2024/04/03 08:07:02;;;;;;;0.80;0.80;;;;;;;;;;4979823;28;20209;-77
2024/04/03 08:09:30;;;;;;;0.70;0.70;;;;;;;;;;4980168;28;20209;-76
2024/04/03 08:11:56;;;;;;;0.73;0.73;;;;;;;;;;4976844;28;20208;-77
2024/04/03 08:14:24;;;;;;;0.70;0.70;;;;;;;;;;4980562;28;20216;-77
2024/04/03 08:16:49;;;;;;;0.70;0.70;;;;;;;;;;4978556;28;20234;-77
2024/04/03 08:19:15;;;;;;;0.70;0.70;;;;;;;;;;4978225;28;20611;-76
2024/04/03 08:21:44;;;;;;;0.75;0.75;;;;;;;;;;4976936;28;20273;-77
2024/04/03 08:24:11;;;;;;;0.70;0.70;;;;;;;;;;4980025;28;20650;-77
2024/04/03 08:26:36;;;;;;;0.88;0.88;;;;;;;;;;4979389;28;20209;-77
2024/04/03 08:29:03;;;;;;;0.70;0.70;;;;;;;;;;4980859;28;20206;-77
2024/04/03 08:31:29;;;;;;;0.80;0.80;;;;;;;;;;4979512;28;20205;-75
2024/04/03 08:34:03;;;;;;;0.70;0.70;;;;;;;;;;4980467;28;20221;-79
2024/04/03 08:36:29;;;;;;;0.70;0.70;;;;;;;;;;4981360;28;21044;-79
2024/04/03 08:38:55;;;;;;;0.63;0.63;;;;;;;;;;4985794;28;20224;-80
2024/04/03 08:41:21;;;;;;;0.70;0.70;;;;;;;;;;4980570;28;20689;-79
2024/04/03 08:43:48;;;;;;;0.70;0.70;;;;;;;;;;4984707;28;20205;-80
2024/04/03 08:46:14;;;;;;;0.70;0.70;;;;;;;;;;4983233;28;20957;-80
2024/04/03 08:48:42;;;;;;;0.70;0.70;;;;;;;;;;4993241;28;20232;-79
2024/04/03 08:51:07;;;;;;;0.70;0.70;;;;;;;;;;4979373;28;20209;-78
2024/04/03 08:53:33;;;;;;;0.70;0.70;;;;;;;;;;4984196;28;20202;-80
2024/04/03 08:55:59;;;;;;;0.70;0.70;;;;;;;;;;4979179;28;20211;-77
2024/04/03 08:58:26;;;;;;;0.70;0.70;;;;;;;;;;4978978;28;20245;-77
2024/04/03 09:00:52;;;;;;;0.70;0.70;;;;;;;;;;4973809;28;20236;-76
2024/04/03 09:03:19;;;;;;;0.80;0.80;;;;;;;;;;4973931;28;20212;-76
2024/04/03 09:05:47;;;;;;;0.70;0.70;;;;;;;;;;4972618;28;20209;-76
2024/04/03 09:08:14;;;;;;;0.77;0.77;;;;;;;;;;4973439;28;20300;-76
2024/04/03 09:10:43;;;;;;;0.70;0.70;;;;;;;;;;4971960;28;20701;-76
2024/04/03 09:13:10;;;;;;;0.70;0.70;;;;;;;;;;4970314;28;20221;-76
2024/04/03 09:15:36;;;;;;;0.65;0.65;;;;;;;;;;4971616;28;20725;-76
2024/04/03 09:18:03;;;;;;;0.70;0.70;;;;;;;;;;4969937;28;20221;-76
2024/04/03 09:20:29;;;;;;;0.90;0.90;;;;;;;;;;4968171;28;20979;-76
2024/04/03 09:22:57;;;;;;;0.70;0.70;;;;;;;;;;4969716;28;20204;-75
2024/04/03 09:25:24;;;;;;;0.80;0.80;;;;;;;;;;4973939;28;20573;-76
2024/04/03 09:27:50;;;;;;;0.70;0.70;;;;;;;;;;4970953;28;20224;-76
2024/04/03 09:30:16;;;;;;;0.80;0.80;;;;;;;;;;4969941;28;20365;-76
2024/04/03 09:32:42;;;;;;;0.70;0.70;;;;;;;;;;4970153;28;20228;-76
2024/04/03 09:35:08;;;;;;;0.77;0.77;;;;;;;;;;4967590;28;20218;-76
2024/04/03 09:37:36;;;;;;;0.70;0.70;;;;;;;;;;4971057;28;20630;-75
2024/04/03 09:40:05;;;;;;;0.65;0.65;;;;;;;;;;4969723;28;20233;-76
2024/04/03 09:42:31;;;;;;;0.70;0.70;;;;;;;;;;4968415;28;20250;-78
2024/04/03 09:44:57;;;;;;;0.70;0.70;;;;;;;;;;4978477;28;20216;-77
2024/04/03 09:47:26;;;;;;;0.70;0.70;;;;;;;;;;4974206;28;20558;-77
2024/04/03 09:49:53;;;;;;;0.70;0.70;;;;;;;;;;4970619;28;21268;-76
2024/04/03 09:52:20;;;;;;;0.70;0.70;;;;;;;;;;4971138;28;21345;-78
2024/04/03 09:54:46;;;;;;;0.70;0.70;;;;;;;;;;4970907;28;20821;-76
2024/04/03 09:57:15;;;;;;;0.80;0.80;;;;;;;;;;4968768;28;20254;-76
2024/04/03 09:59:41;;;;;;;0.70;0.70;;;;;;;;;;4968798;28;20733;-76
2024/04/03 10:02:11;;;;;;;0.75;0.75;;;;;;;;;;4970168;28;20205;-76
2024/04/03 10:04:37;;;;;;;0.70;0.70;;;;;;;;;;4970649;28;20205;-74
2024/04/03 10:07:03;;;;;;;0.80;0.80;;;;;;;;;;4968154;28;20213;-76
2024/04/03 10:09:30;;;;;;;0.70;0.70;;;;;;;;;;4969221;28;20204;-75
2024/04/03 10:11:57;;;;;;;0.70;0.70;;;;;;;;;;4968396;28;21222;-76
2024/04/03 10:14:27;;;;;;;0.70;0.70;;;;;;;;;;4970198;28;21963;-77
2024/04/03 10:16:54;;;;;;;0.70;0.70;;;;;;;;;;4968231;28;20729;-78
2024/04/03 10:19:20;;;;;;;0.95;0.95;;;;;;;;;;4967796;28;21281;-76
2024/04/03 10:21:46;;;;;;;0.70;0.70;;;;;;;;;;4963069;28;20210;-77
2024/04/03 10:24:11;;;;;;;0.70;0.70;;;;;;;;;;4972575;28;20512;-78
2024/04/03 10:26:38;;;;;;;0.70;0.70;;;;;;;;;;4969560;28;22122;-78
2024/04/03 10:29:04;;;;;;;0.80;0.80;;;;;;;;;;4970936;28;20232;-77
2024/04/03 10:31:32;;;;;;;0.70;0.70;;;;;;;;;;4970271;28;20206;-77
2024/04/03 10:33:58;;;;;;;0.73;0.73;;;;;;;;;;4969717;28;20338;-77
2024/04/03 10:36:24;;;;;;;0.70;0.70;;;;;;;;;;4972038;28;20230;-77
2024/04/03 10:38:50;;;;;;;0.70;0.70;;;;;;;;;;4976729;28;20932;-76
2024/04/03 10:41:16;;;;;;;0.70;0.70;;;;;;;;;;4973678;28;20282;-76
2024/04/03 10:43:41;;;;;;;0.70;0.70;;;;;;;;;;4972636;28;20768;-78
2024/04/03 10:46:11;;;;;;;0.70;0.70;;;;;;;;;;4975043;28;20930;-75
2024/04/03 10:48:40;;;;;;;0.70;0.70;;;;;;;;;;4983965;28;20295;-77
2024/04/03 10:51:07;;;;;;;0.70;0.70;;;;;;;;;;4971015;28;20213;-76
2024/04/03 10:53:33;;;;;;;0.70;0.70;;;;;;;;;;4974117;28;21342;-77
2024/04/03 10:56:00;;;;;;;0.70;0.70;;;;;;;;;;4975625;28;20692;-76
2024/04/03 10:58:27;;;;;;;0.70;0.70;;;;;;;;;;4973770;28;20245;-76
2024/04/03 11:00:53;;;;;;;0.70;0.70;;;;;;;;;;4974820;28;20236;-76
2024/04/03 11:03:19;;;;;;;0.70;0.70;;;;;;;;;;4970507;28;20209;-76
2024/04/03 11:05:48;;;;;;;0.70;0.70;;;;;;;;;;4973536;28;20212;-76
2024/04/03 11:08:15;;;;;;;0.70;0.70;;;;;;;;;;4974169;28;20891;-77
2024/04/03 11:10:41;;;;;;;0.60;0.60;;;;;;;;;;4975254;28;20543;-77
2024/04/03 11:13:09;;;;;;;0.70;0.70;;;;;;;;;;4972207;28;20224;-76
2024/04/03 11:15:35;;;;;;;0.63;0.63;;;;;;;;;;4974532;28;20213;-78
2024/04/03 11:18:01;;;;;;;0.70;0.70;;;;;;;;;;4975817;28;20231;-76
2024/04/03 11:20:27;;;;;;;0.70;0.70;;;;;;;;;;4972150;28;21112;-75
2024/04/03 11:22:56;;;;;;;0.70;0.70;;;;;;;;;;4975434;28;20478;-76
2024/04/03 11:25:22;;;;;;;0.70;0.70;;;;;;;;;;4976951;28;20209;-76
2024/04/03 11:27:47;;;;;;;0.70;0.70;;;;;;;;;;4976857;28;20209;-76
2024/04/03 11:30:14;;;;;;;0.70;0.70;;;;;;;;;;4980903;28;20205;-77
2024/04/03 11:32:39;;;;;;;0.70;0.70;;;;;;;;;;4976211;28;20419;-77
2024/04/03 11:35:08;;;;;;;0.70;0.70;;;;;;;;;;4972623;28;20213;-74
2024/04/03 11:37:34;;;;;;;0.70;0.70;;;;;;;;;;4972617;28;20822;-75
2024/04/03 11:40:03;;;;;;;0.70;0.70;;;;;;;;;;4973258;28;20291;-76
2024/04/03 11:42:29;;;;;;;0.82;0.82;;;;;;;;;;4972958;28;20237;-76
2024/04/03 11:44:56;;;;;;;0.70;0.70;;;;;;;;;;4972365;28;20213;-76
2024/04/03 11:47:21;;;;;;;0.75;0.75;;;;;;;;;;4972825;28;20218;-76
2024/04/03 11:49:48;;;;;;;0.70;0.70;;;;;;;;;;4985655;28;20214;-76
2024/04/03 11:52:15;;;;;;;0.70;0.70;;;;;;;;;;4973690;28;21249;-76
2024/04/03 11:54:41;;;;;;;0.70;0.70;;;;;;;;;;4975566;28;20332;-75
2024/04/03 11:57:09;;;;;;;0.70;0.70;;;;;;;;;;4974538;28;20228;-76
2024/04/03 11:59:35;;;;;;;0.85;0.85;;;;;;;;;;4977526;28;22640;-76
2024/04/03 12:02:02;;;;;;;0.70;0.70;;;;;;;;;;4977150;28;20218;-76
2024/04/03 12:04:28;;;;;;;0.75;0.75;;;;;;;;;;4974597;28;20254;-77
2024/04/03 12:06:53;;;;;;;0.70;0.70;;;;;;;;;;4976229;28;20221;-77
2024/04/03 12:09:20;;;;;;;0.80;0.80;;;;;;;;;;4975906;28;20209;-77
2024/04/03 12:11:45;;;;;;;0.80;0.80;;;;;;;;;;4973670;28;21384;-77
2024/04/03 12:14:13;;;;;;;0.70;0.70;;;;;;;;;;4976000;28;20209;-76
2024/04/03 12:16:39;;;;;;;0.70;0.70;;;;;;;;;;4974137;28;20221;-76
2024/04/03 12:19:16;;;;;;;0.70;0.70;;;;;;;;;;4975224;28;20212;-77
2024/04/03 12:21:41;;;;;;;0.70;0.70;;;;;;;;;;4973799;28;20536;-77
2024/04/03 12:24:08;;;;;;;0.70;0.70;;;;;;;;;;4977136;28;20205;-78
2024/04/03 12:26:33;;;;;;;0.80;0.80;;;;;;;;;;4974434;28;20799;-76
2024/04/03 12:28:59;;;;;;;0.77;0.77;;;;;;;;;;4977545;28;20209;-77
2024/04/03 12:31:26;;;;;;;0.63;0.63;;;;;;;;;;4974958;28;20715;-76
2024/04/03 12:33:53;;;;;;;0.70;0.70;;;;;;;;;;4973285;28;20217;-77
2024/04/03 12:36:18;;;;;;;0.70;0.70;;;;;;;;;;4972802;28;20517;-76
2024/04/03 12:38:45;;;;;;;0.70;0.70;;;;;;;;;;4974154;28;20205;-77
2024/04/03 12:41:11;;;;;;;0.70;0.70;;;;;;;;;;4975686;28;20265;-76
2024/04/03 12:43:37;;;;;;;0.70;0.70;;;;;;;;;;4973470;28;20213;-77
2024/04/03 12:46:03;;;;;;;0.80;0.80;;;;;;;;;;4980562;28;20732;-77
2024/04/03 12:48:31;;;;;;;0.70;0.70;;;;;;;;;;4984754;28;20209;-76
2024/04/03 12:50:56;;;;;;;0.70;0.70;;;;;;;;;;4970613;28;20213;-76
2024/04/03 12:53:23;;;;;;;0.70;0.70;;;;;;;;;;4973445;28;20201;-77
2024/04/03 12:55:48;;;;;;;0.70;0.70;;;;;;;;;;4973653;28;20217;-77
2024/04/03 12:58:15;;;;;;;0.65;0.65;;;;;;;;;;4972522;28;20983;-76
2024/04/03 13:00:41;;;;;;;0.68;0.68;;;;;;;;;;4975122;28;20229;-77
2024/04/03 13:03:08;;;;;;;0.70;0.70;;;;;;;;;;4974454;28;20247;-77
2024/04/03 13:05:35;;;;;;;0.70;0.70;;;;;;;;;;4973485;28;20220;-76
2024/04/03 13:08:02;;;;;;;0.70;0.70;;;;;;;;;;4974593;28;20842;-77
2024/04/03 13:10:32;;;;;;;0.70;0.70;;;;;;;;;;4977405;28;20209;-76
2024/04/03 13:12:58;;;;;;;0.80;0.80;;;;;;;;;;4973410;28;20216;-78
2024/04/03 13:15:24;;;;;;;0.70;0.70;;;;;;;;;;4973942;28;20216;-77
2024/04/03 13:17:50;;;;;;;0.70;0.70;;;;;;;;;;4972885;28;20217;-77
2024/04/03 13:20:16;;;;;;;0.75;0.75;;;;;;;;;;4972210;28;20264;-77
2024/04/03 13:22:43;;;;;;;0.80;0.80;;;;;;;;;;4972115;28;20332;-76
2024/04/03 13:25:09;;;;;;;0.80;0.80;;;;;;;;;;4974321;28;20544;-78
2024/04/03 13:27:36;;;;;;;0.80;0.80;;;;;;;;;;4971752;28;20212;-77
2024/04/03 13:30:02;;;;;;;0.80;0.80;;;;;;;;;;4972593;28;20631;-77
2024/04/03 13:32:28;;;;;;;0.70;0.70;;;;;;;;;;4973527;28;20213;-76
2024/04/03 13:34:54;;;;;;;0.70;0.70;;;;;;;;;;4967349;28;20213;-76
2024/04/03 13:37:21;;;;;;;0.80;0.80;;;;;;;;;;4973368;28;20217;-79
2024/04/03 13:39:48;;;;;;;0.70;0.70;;;;;;;;;;4972561;28;20910;-77
2024/04/03 13:42:16;;;;;;;0.75;0.75;;;;;;;;;;4982323;28;20570;-77
2024/04/03 13:44:42;;;;;;;0.85;0.85;;;;;;;;;;4970208;28;20224;-76
2024/04/03 13:47:08;;;;;;;0.70;0.70;;;;;;;;;;4972500;28;20772;-76
2024/04/03 13:49:34;;;;;;;0.70;0.70;;;;;;;;;;4971062;28;20824;-76
2024/04/03 13:52:00;;;;;;;0.70;0.70;;;;;;;;;;4969529;28;20580;-76
2024/04/03 13:54:25;;;;;;;0.80;0.80;;;;;;;;;;4972053;28;20213;-75
2024/04/03 13:56:53;;;;;;;0.70;0.70;;;;;;;;;;4971351;28;20740;-77
2024/04/03 13:59:19;;;;;;;0.68;0.68;;;;;;;;;;4972912;28;20256;-76
2024/04/03 14:01:47;;;;;;;0.80;0.80;;;;;;;;;;4972128;28;20240;-76
2024/04/03 14:04:12;;;;;;;0.70;0.70;;;;;;;;;;4975792;28;20219;-78
2024/04/03 14:06:39;;;;;;;0.70;0.70;;;;;;;;;;4973939;28;20209;-76
2024/04/03 14:09:05;;;;;;;0.70;0.70;;;;;;;;;;4980231;28;20213;-78
2024/04/03 14:11:31;;;;;;;1.17;1.17;;;;;;;;;;4976806;28;20330;-77
2024/04/03 14:13:59;;;;;;;0.70;0.70;;;;;;;;;;4976041;28;20215;-79
2024/04/03 14:16:26;;;;;;;0.70;0.70;;;;;;;;;;4974966;28;20349;-79
2024/04/03 14:18:51;;;;;;;0.70;0.70;;;;;;;;;;4975320;28;20201;-77
2024/04/03 14:21:18;;;;;;;0.63;0.63;;;;;;;;;;4972335;28;21098;-76
2024/04/03 14:23:43;;;;;;;0.70;0.70;;;;;;;;;;4974840;28;20205;-79
2024/04/03 14:26:10;;;;;;;0.60;0.60;;;;;;;;;;4974674;28;20209;-76
2024/04/03 14:28:35;;;;;;;0.70;0.70;;;;;;;;;;4976132;28;20854;-76
2024/04/03 14:31:04;;;;;;;0.60;0.60;;;;;;;;;;4974417;28;20214;-77
2024/04/03 14:33:29;;;;;;;0.70;0.70;;;;;;;;;;4972689;28;20221;-76
2024/04/03 14:35:55;;;;;;;0.80;0.80;;;;;;;;;;4970998;28;20209;-76
2024/04/03 14:38:23;;;;;;;0.73;0.73;;;;;;;;;;4974787;28;20271;-76
2024/04/03 14:40:49;;;;;;;0.70;0.70;;;;;;;;;;4979075;28;20225;-78